GXY weather

Greeley–Weld County Airport
Greeley, Colorado, United States

Public forecast

Using degrees Fahrenheit for public forecast. Weather courtesy of forecast.io.

METAR (pilot weather report)

Retrieved 2019/09/19 10:56 UTC (35 minutes ago):

KGXY 191056Z AUTO 35005KT 10SM CLR 09/07 A3001 RMK AO2 SLP137 T00890072

TAF (pilot weather forecast)

Closest forecast is Denver International Airport, 34.6 nm (64.1 km) S. Retrieved 2019/09/19 06:22 UTC (5 hours ago):

TAF KDEN 190520Z 1906/2012 16013KT P6SM FEW110 FM190605 20009KT P6SM FEW110 FM191400 VRB05KT P6SM FEW100 FM191800 07010KT P6SM SCT100 FM192200 14011KT P6SM SCT100 FM200400 18015G22KT P6SM FEW120 SCT200